Time;durP1;ratioP1;P1;durP2;ratioP2;P2;SDS_P1;SDS_P2;PMS_P1;PMS_P2;Temp;Humidity;BMP_temperature;BMP_pressure;BME280_temperature;BME280_humidity;BME280_pressure;Samples;Min_cycle;Max_cycle;Signal;HPM_P1;HPM_P2
2022/07/28 00:00:37;;;;;;;2.58;1.40;;;19.20;68.80;;;;;;5045160;28;20029;-63
2022/07/28 00:03:03;;;;;;;5.65;1.77;;;19.10;68.90;;;;;;5051474;28;20480;-63
2022/07/28 00:05:29;;;;;;;3.08;1.60;;;19.10;69.00;;;;;;5051942;28;20534;-63
2022/07/28 00:07:55;;;;;;;2.05;1.40;;;19.00;68.60;;;;;;5058017;28;20024;-63
2022/07/28 00:10:21;;;;;;;2.38;1.38;;;19.00;68.20;;;;;;5059043;28;20068;-63
2022/07/28 00:12:47;;;;;;;4.18;1.48;;;19.00;68.30;;;;;;5057241;28;20064;-63
2022/07/28 00:15:12;;;;;;;5.05;1.30;;;18.90;68.50;;;;;;5071656;28;20052;-63
2022/07/28 00:17:38;;;;;;;2.75;1.60;;;18.90;68.40;;;;;;5057694;28;20040;-63
2022/07/28 00:20:05;;;;;;;3.75;2.13;;;18.90;68.20;;;;;;5071014;28;20028;-63
2022/07/28 00:22:31;;;;;;;2.00;1.48;;;18.80;68.10;;;;;;5051833;28;20163;-63
2022/07/28 00:24:57;;;;;;;2.60;1.48;;;18.80;67.80;;;;;;5052319;28;20075;-63
2022/07/28 00:27:23;;;;;;;4.03;1.65;;;18.80;67.70;;;;;;5051078;28;20020;-63
2022/07/28 00:29:49;;;;;;;4.57;1.48;;;18.70;67.60;;;;;;5052224;28;20029;-62
2022/07/28 00:32:15;;;;;;;3.20;1.58;;;18.70;67.70;;;;;;5051647;28;20475;-63
2022/07/28 00:34:41;;;;;;;3.25;1.60;;;18.70;67.80;;;;;;5050736;28;20041;-63
2022/07/28 00:37:07;;;;;;;3.67;1.33;;;18.60;67.80;;;;;;5051618;28;20028;-63
2022/07/28 00:39:33;;;;;;;1.60;1.30;;;18.60;67.80;;;;;;5051498;28;20424;-63
2022/07/28 00:41:59;;;;;;;5.00;1.75;;;18.60;67.80;;;;;;5051805;28;20051;-63
2022/07/28 00:44:24;;;;;;;2.25;1.52;;;18.50;67.90;;;;;;5051574;28;20067;-62
2022/07/28 00:46:50;;;;;;;2.70;1.65;;;18.50;68.20;;;;;;5051210;28;20033;-63
2022/07/28 00:49:16;;;;;;;1.73;1.55;;;18.40;68.40;;;;;;5047591;28;20035;-63
2022/07/28 00:51:42;;;;;;;2.85;1.42;;;18.40;68.40;;;;;;5039366;28;20543;-63
2022/07/28 00:54:08;;;;;;;3.90;1.80;;;18.40;68.60;;;;;;5042593;28;20574;-63
2022/07/28 00:56:34;;;;;;;3.35;1.30;;;18.30;68.80;;;;;;5050300;28;20029;-63
2022/07/28 00:59:00;;;;;;;3.05;1.98;;;18.30;68.70;;;;;;5042975;28;20037;-63
2022/07/28 01:01:26;;;;;;;2.55;1.50;;;18.30;68.80;;;;;;5050665;28;20037;-63
2022/07/28 01:04:00;;;;;;;2.25;1.48;;;18.30;68.80;;;;;;5054800;28;20032;-63
2022/07/28 01:06:45;;;;;;;3.72;1.60;;;18.20;69.00;;;;;;5058362;28;20640;-63
2022/07/28 01:09:30;;;;;;;2.60;1.60;;;18.20;69.20;;;;;;5047884;28;20025;-62
2022/07/28 01:12:15;;;;;;;8.70;1.65;;;18.10;69.20;;;;;;5053854;28;20400;-63
2022/07/28 01:14:50;;;;;;;5.00;1.67;;;18.10;69.40;;;;;;5045406;28;20384;-63
2022/07/28 01:17:46;;;;;;;4.72;1.80;;;18.10;69.40;;;;;;5067769;28;20029;-63
2022/07/28 01:20:20;;;;;;;6.03;2.22;;;18.00;69.50;;;;;;5054714;28;20052;-63
2022/07/28 01:23:33;;;;;;;4.20;2.05;;;18.00;69.70;;;;;;5049580;28;20159;-63
2022/07/28 01:26:12;;;;;;;3.40;2.10;;;18.00;69.80;;;;;;5017959;28;20055;-63
2022/07/28 01:28:59;;;;;;;5.60;2.40;;;17.90;70.00;;;;;;5050604;28;20090;-63
2022/07/28 01:31:30;;;;;;;7.43;2.90;;;17.90;70.20;;;;;;5044409;28;20028;-63
2022/07/28 01:34:03;;;;;;;5.10;2.30;;;17.90;70.40;;;;;;5054797;28;20511;-63
2022/07/28 01:36:40;;;;;;;3.67;2.40;;;17.80;70.50;;;;;;5045313;28;20037;-63
2022/07/28 01:39:06;;;;;;;5.20;2.58;;;17.80;70.70;;;;;;5053778;28;20067;-62
2022/07/28 01:41:34;;;;;;;3.47;2.30;;;17.80;70.80;;;;;;5048090;28;20028;-63
2022/07/28 01:44:10;;;;;;;4.82;2.67;;;17.80;70.90;;;;;;5063814;28;20389;-63
2022/07/28 01:46:37;;;;;;;3.85;2.90;;;17.80;71.00;;;;;;5064339;28;20414;-62
2022/07/28 01:49:03;;;;;;;5.47;2.92;;;17.70;71.20;;;;;;5058497;28;20085;-63
2022/07/28 01:51:31;;;;;;;6.72;2.72;;;17.80;71.40;;;;;;5059536;28;20037;-63
2022/07/28 01:53:59;;;;;;;4.45;2.38;;;17.80;72.30;;;;;;5054531;28;20049;-63
2022/07/28 01:56:27;;;;;;;3.30;2.47;;;17.80;72.40;;;;;;5053643;28;20486;-63
2022/07/28 01:58:56;;;;;;;4.28;2.60;;;17.70;71.80;;;;;;5044557;28;20102;-63
2022/07/28 02:01:24;;;;;;;3.92;2.53;;;17.70;71.90;;;;;;5055243;28;20022;-63
2022/07/28 02:03:50;;;;;;;5.75;2.90;;;17.70;72.00;;;;;;5072793;28;20061;-62
2022/07/28 02:06:18;;;;;;;5.22;2.80;;;17.70;72.30;;;;;;5061187;28;20424;-63
2022/07/28 02:08:44;;;;;;;5.20;2.70;;;17.70;72.50;;;;;;5067794;28;20060;-63
2022/07/28 02:14:23;;;;;;;5.03;2.67;;;17.70;72.70;;;;;;5012568;28;20040;-62
2022/07/28 02:17:03;;;;;;;4.75;2.47;;;17.70;72.60;;;;;;5000264;28;20037;-63
2022/07/28 02:19:30;;;;;;;3.92;2.75;;;17.70;72.70;;;;;;5027118;28;20046;-63
2022/07/28 02:21:56;;;;;;;7.03;2.53;;;17.70;72.70;;;;;;5053899;28;20116;-63
2022/07/28 02:24:27;;;;;;;7.53;2.45;;;17.70;72.80;;;;;;5066055;28;20086;-63
2022/07/28 02:27:00;;;;;;;4.30;2.47;;;17.70;72.90;;;;;;5063373;28;20036;-63
2022/07/28 02:29:30;;;;;;;2.88;2.38;;;17.60;72.90;;;;;;5068211;28;20392;-63
2022/07/28 02:32:07;;;;;;;3.72;2.33;;;17.60;72.90;;;;;;5060661;28;20400;-63
2022/07/28 02:34:37;;;;;;;3.83;2.00;;;17.60;73.10;;;;;;5054050;28;20388;-63
2022/07/28 02:37:04;;;;;;;5.13;2.70;;;17.60;73.20;;;;;;5053646;28;20025;-62
2022/07/28 02:39:41;;;;;;;9.45;2.42;;;17.60;73.40;;;;;;5053227;28;20049;-62
2022/07/28 02:42:13;;;;;;;5.47;1.98;;;17.60;74.10;;;;;;5053590;28;20033;-63
2022/07/28 02:44:42;;;;;;;3.63;2.50;;;17.60;73.70;;;;;;5053863;28;20507;-62
2022/07/28 02:47:11;;;;;;;4.15;2.30;;;17.60;74.00;;;;;;5063989;28;20388;-63
2022/07/28 02:49:40;;;;;;;5.53;2.42;;;17.60;74.20;;;;;;5053890;28;20380;-62
2022/07/28 02:52:11;;;;;;;5.40;2.53;;;17.60;74.30;;;;;;5053315;28;20052;-63
2022/07/28 02:54:38;;;;;;;3.72;2.20;;;17.60;74.30;;;;;;5063709;28;20090;-62
2022/07/28 02:57:06;;;;;;;2.97;2.05;;;17.60;74.30;;;;;;5053172;28;20510;-62
2022/07/28 02:59:35;;;;;;;4.65;2.20;;;17.50;74.30;;;;;;5044367;28;20106;-63
2022/07/28 03:02:02;;;;;;;6.88;2.38;;;17.60;74.60;;;;;;5063377;28;20100;-63
2022/07/28 03:07:14;;;;;;;6.13;2.50;;;17.50;75.60;;;;;;5052017;28;20029;-62
2022/07/28 03:09:44;;;;;;;6.28;2.40;;;17.50;75.80;;;;;;5053063;28;20090;-63
2022/07/28 03:12:11;;;;;;;5.20;2.60;;;17.50;76.10;;;;;;5064846;28;20441;-63
2022/07/28 03:14:37;;;;;;;5.78;2.63;;;17.60;76.20;;;;;;5052536;28;20040;-63
2022/07/28 03:17:03;;;;;;;4.72;2.70;;;17.60;76.40;;;;;;5052842;28;20075;-63
2022/07/28 03:19:29;;;;;;;8.10;2.42;;;17.60;76.50;;;;;;5052730;28;20555;-62
2022/07/28 03:21:55;;;;;;;5.82;2.83;;;17.60;76.50;;;;;;5052483;28;20113;-62
2022/07/28 03:24:24;;;;;;;4.05;2.53;;;17.60;76.70;;;;;;5052892;28;20039;-62
2022/07/28 03:27:15;;;;;;;6.93;2.70;;;17.60;76.90;;;;;;5053236;28;20124;-63
2022/07/28 03:29:42;;;;;;;5.60;2.00;;;17.60;76.90;;;;;;5051599;28;20072;-63
2022/07/28 03:32:08;;;;;;;3.03;2.10;;;17.60;76.60;;;;;;5056473;28;20033;-63
2022/07/28 03:34:34;;;;;;;4.60;2.45;;;17.50;76.10;;;;;;5051544;28;20021;-63
2022/07/28 03:37:06;;;;;;;4.68;2.50;;;17.50;76.10;;;;;;5051024;28;20481;-63
2022/07/28 03:39:36;;;;;;;5.15;2.47;;;17.50;76.10;;;;;;5051825;28;20137;-62
2022/07/28 03:42:03;;;;;;;5.25;2.30;;;17.50;76.30;;;;;;5052370;28;20120;-62
2022/07/28 03:44:29;;;;;;;7.97;2.28;;;17.50;76.40;;;;;;5050722;28;20040;-63
2022/07/28 03:46:55;;;;;;;4.82;2.45;;;17.40;76.30;;;;;;5052722;28;20052;-62
2022/07/28 03:49:21;;;;;;;5.80;2.38;;;17.40;76.30;;;;;;5051692;28;20369;-63
2022/07/28 03:51:47;;;;;;;3.83;2.33;;;17.40;76.40;;;;;;5063959;28;20039;-62
2022/07/28 03:54:13;;;;;;;3.70;1.85;;;17.40;76.30;;;;;;5063672;28;20055;-62
2022/07/28 03:56:38;;;;;;;4.93;1.95;;;17.40;76.20;;;;;;5051746;28;20111;-62
2022/07/28 03:59:04;;;;;;;3.28;2.10;;;17.40;76.10;;;;;;5041404;28;20040;-62
2022/07/28 04:01:30;;;;;;;6.72;3.00;;;17.40;76.30;;;;;;5051759;28;20025;-62
2022/07/28 04:03:55;;;;;;;4.47;2.40;;;17.40;76.70;;;;;;5064479;28;20056;-62
2022/07/28 04:06:21;;;;;;;5.50;2.50;;;17.40;77.70;;;;;;5051235;28;20036;-62
2022/07/28 04:08:47;;;;;;;3.45;1.95;;;17.40;77.40;;;;;;5052825;28;20032;-63
2022/07/28 04:11:12;;;;;;;3.90;2.30;;;17.40;77.40;;;;;;5050873;28;20423;-62
2022/07/28 04:13:38;;;;;;;3.72;2.13;;;17.40;77.40;;;;;;5052028;28;20025;-62
2022/07/28 04:16:05;;;;;;;5.60;2.03;;;17.40;77.70;;;;;;5052088;28;20025;-62
2022/07/28 04:18:31;;;;;;;7.30;2.15;;;17.40;78.00;;;;;;5050822;28;20052;-62
2022/07/28 04:20:57;;;;;;;4.00;2.10;;;17.40;78.20;;;;;;5054328;28;20025;-62
2022/07/28 04:23:23;;;;;;;3.72;2.03;;;17.40;78.30;;;;;;5051092;28;20024;-62
2022/07/28 04:25:52;;;;;;;4.00;2.47;;;17.50;78.50;;;;;;5053427;28;20047;-62
2022/07/28 04:28:17;;;;;;;8.95;2.50;;;17.50;78.80;;;;;;5053965;28;20021;-62
2022/07/28 04:30:46;;;;;;;7.63;2.40;;;17.50;79.00;;;;;;5048940;28;20495;-62
2022/07/28 04:33:12;;;;;;;3.55;2.20;;;17.50;79.10;;;;;;5052964;28;20036;-62
2022/07/28 04:35:38;;;;;;;4.35;2.30;;;17.50;79.20;;;;;;5055799;28;20082;-63
2022/07/28 04:38:04;;;;;;;10.98;2.50;;;17.50;79.30;;;;;;5055054;28;20045;-62
2022/07/28 04:40:33;;;;;;;3.22;1.98;;;17.60;79.20;;;;;;5051688;28;20033;-63
2022/07/28 04:42:59;;;;;;;2.90;2.00;;;17.60;79.10;;;;;;5051913;28;20060;-62
2022/07/28 04:45:25;;;;;;;7.22;2.30;;;17.60;79.10;;;;;;5051452;28;20025;-62
2022/07/28 04:47:52;;;;;;;3.60;2.38;;;17.60;79.00;;;;;;5051435;28;20454;-62
2022/07/28 04:50:20;;;;;;;7.60;2.05;;;17.60;79.10;;;;;;5049033;28;20037;-62
2022/07/28 04:52:57;;;;;;;6.07;2.00;;;17.60;79.40;;;;;;5050987;28;20052;-62
2022/07/28 04:55:24;;;;;;;3.95;1.88;;;17.60;79.60;;;;;;5051559;28;20033;-62
2022/07/28 04:57:50;;;;;;;6.55;2.25;;;17.60;79.30;;;;;;5045952;28;20293;-62
2022/07/28 05:00:15;;;;;;;3.45;2.00;;;17.60;79.00;;;;;;5046844;28;20108;-62
2022/07/28 05:02:43;;;;;;;3.83;2.05;;;17.60;78.90;;;;;;5052070;28;20033;-62
2022/07/28 05:05:09;;;;;;;5.05;2.30;;;17.60;79.00;;;;;;5050673;28;20040;-62
2022/07/28 05:07:36;;;;;;;4.22;2.20;;;17.60;79.00;;;;;;5061529;28;20082;-62
2022/07/28 05:10:03;;;;;;;4.03;2.05;;;17.60;79.30;;;;;;5057164;28;20380;-62
2022/07/28 05:12:29;;;;;;;4.40;2.20;;;17.60;79.40;;;;;;5059851;28;20029;-62
2022/07/28 05:14:55;;;;;;;6.38;3.30;;;17.60;79.40;;;;;;5050054;28;20031;-62
2022/07/28 05:17:20;;;;;;;5.25;2.38;;;17.60;79.10;;;;;;5051660;28;20095;-62
2022/07/28 05:19:46;;;;;;;3.80;1.92;;;17.60;79.00;;;;;;5050397;28;20056;-62
2022/07/28 05:22:12;;;;;;;3.85;2.20;;;17.60;78.80;;;;;;5051072;28;20389;-62
2022/07/28 05:24:38;;;;;;;3.58;2.28;;;17.60;78.50;;;;;;5050688;28;20548;-62
2022/07/28 05:27:04;;;;;;;3.55;2.00;;;17.60;78.70;;;;;;5051435;28;20108;-62
2022/07/28 05:29:29;;;;;;;5.68;2.60;;;17.50;78.70;;;;;;5050174;28;20032;-62
2022/07/28 05:31:55;;;;;;;5.60;2.00;;;17.60;78.70;;;;;;5046802;28;20473;-62
2022/07/28 05:34:21;;;;;;;3.90;2.10;;;17.50;78.70;;;;;;5050745;28;20396;-62
2022/07/28 05:36:46;;;;;;;4.97;2.13;;;17.50;78.80;;;;;;5050756;28;20037;-62
2022/07/28 05:39:12;;;;;;;7.88;2.35;;;17.50;79.10;;;;;;5050376;28;20124;-62
2022/07/28 05:41:38;;;;;;;5.15;2.10;;;17.60;79.20;;;;;;5051719;28;20056;-62
2022/07/28 05:44:03;;;;;;;7.28;1.90;;;17.50;79.20;;;;;;5049725;28;20037;-62
2022/07/28 05:46:29;;;;;;;4.95;2.08;;;17.50;78.90;;;;;;5051370;28;20033;-62
2022/07/28 05:48:55;;;;;;;4.78;2.25;;;17.50;78.90;;;;;;5050050;28;20032;-62
2022/07/28 05:51:20;;;;;;;6.43;2.38;;;17.50;79.00;;;;;;5050944;28;20025;-63
2022/07/28 05:53:46;;;;;;;13.65;2.13;;;17.60;79.40;;;;;;5050248;28;20128;-62
2022/07/28 05:56:12;;;;;;;4.07;2.13;;;17.60;79.60;;;;;;5050421;28;20028;-62
2022/07/28 05:58:37;;;;;;;9.43;2.13;;;17.60;79.40;;;;;;5040184;28;20037;-62
2022/07/28 06:01:03;;;;;;;7.05;2.47;;;17.60;79.60;;;;;;5054529;28;20028;-62
2022/07/28 06:03:31;;;;;;;5.25;2.00;;;17.60;79.70;;;;;;5063167;28;20108;-62
2022/07/28 06:05:57;;;;;;;8.98;2.60;;;17.60;80.10;;;;;;5056573;28;20027;-62
2022/07/28 06:08:25;;;;;;;10.60;2.33;;;17.70;80.50;;;;;;5053622;28;20037;-62
2022/07/28 06:11:10;;;;;;;5.07;2.60;;;17.80;80.90;;;;;;5053793;28;20037;-62
2022/07/28 06:13:39;;;;;;;5.15;2.60;;;17.80;81.30;;;;;;5053515;28;20064;-62
2022/07/28 06:16:06;;;;;;;14.20;2.42;;;17.80;81.70;;;;;;5053920;28;20029;-62
2022/07/28 06:18:32;;;;;;;11.70;2.42;;;17.80;82.00;;;;;;5052051;28;20380;-62
2022/07/28 06:20:57;;;;;;;4.28;2.20;;;17.80;82.30;;;;;;5044401;28;20017;-62
2022/07/28 06:23:23;;;;;;;2.67;1.77;;;17.90;82.60;;;;;;5057563;28;20047;-63
2022/07/28 06:25:50;;;;;;;4.68;1.50;;;17.90;82.70;;;;;;5050746;28;20469;-63
2022/07/28 06:28:17;;;;;;;6.60;2.00;;;17.90;82.60;;;;;;5051917;28;20033;-62
2022/07/28 06:30:44;;;;;;;3.90;1.70;;;17.80;82.40;;;;;;5052586;28;20025;-67
2022/07/28 06:33:09;;;;;;;6.85;1.75;;;17.80;82.20;;;;;;5047961;28;20068;-62
2022/07/28 06:35:35;;;;;;;4.57;1.83;;;17.90;82.30;;;;;;5051959;28;20457;-62
2022/07/28 06:38:01;;;;;;;2.40;1.38;;;17.90;82.40;;;;;;5048164;28;20033;-62
2022/07/28 06:40:26;;;;;;;4.35;1.55;;;17.80;82.40;;;;;;5050116;28;20143;-62
2022/07/28 06:42:52;;;;;;;4.00;1.63;;;17.80;82.70;;;;;;5049303;28;20419;-62
2022/07/28 06:45:19;;;;;;;2.35;1.77;;;17.90;82.80;;;;;;5049632;28;20954;-62
2022/07/28 06:47:45;;;;;;;6.32;1.83;;;17.90;82.70;;;;;;5048803;28;20033;-62
2022/07/28 06:50:11;;;;;;;5.65;1.63;;;17.90;82.60;;;;;;5048527;28;20078;-62
2022/07/28 06:52:37;;;;;;;4.72;1.65;;;17.90;82.60;;;;;;5051392;28;20396;-62
2022/07/28 06:55:04;;;;;;;8.27;1.80;;;17.90;82.60;;;;;;5051658;28;20073;-62
2022/07/28 06:57:32;;;;;;;5.68;1.75;;;17.90;82.90;;;;;;5051767;28;20021;-62
2022/07/28 06:59:57;;;;;;;6.72;2.03;;;17.90;82.90;;;;;;5052586;28;20049;-62
2022/07/28 07:02:23;;;;;;;4.45;1.80;;;18.00;83.10;;;;;;5058587;28;20070;-62
2022/07/28 07:04:51;;;;;;;6.47;1.73;;;18.00;83.00;;;;;;5053051;28;20082;-62
2022/07/28 07:07:17;;;;;;;3.10;1.60;;;18.00;83.30;;;;;;5047743;28;20392;-62
2022/07/28 07:09:43;;;;;;;45.20;4.53;;;18.00;83.20;;;;;;5051798;28;20024;-63
2022/07/28 07:12:09;;;;;;;5.60;1.40;;;18.10;83.30;;;;;;5050676;28;20503;-63
2022/07/28 07:14:34;;;;;;;6.68;1.75;;;18.10;83.10;;;;;;5051035;28;20029;-63
2022/07/28 07:17:00;;;;;;;7.70;1.90;;;18.10;83.10;;;;;;5050906;28;20025;-63
2022/07/28 07:19:26;;;;;;;3.03;1.50;;;18.10;83.20;;;;;;5052058;28;20048;-63
2022/07/28 07:21:54;;;;;;;3.42;1.60;;;18.20;83.10;;;;;;5049068;28;20060;-62
2022/07/28 07:24:20;;;;;;;5.68;1.67;;;18.20;82.90;;;;;;5051277;28;20045;-62
2022/07/28 07:26:46;;;;;;;9.68;2.00;;;18.20;83.10;;;;;;5050894;28;20025;-62
2022/07/28 07:29:12;;;;;;;4.85;1.92;;;18.20;83.00;;;;;;5051239;28;20029;-63
2022/07/28 07:31:38;;;;;;;4.05;1.75;;;18.20;82.90;;;;;;5048642;28;20025;-64
2022/07/28 07:34:05;;;;;;;8.15;2.67;;;18.30;82.90;;;;;;5052986;28;20029;-64
2022/07/28 07:36:31;;;;;;;5.22;1.80;;;18.30;83.10;;;;;;5051512;28;20039;-63
2022/07/28 07:38:58;;;;;;;5.88;2.00;;;18.30;82.80;;;;;;5052261;28;20053;-63
2022/07/28 07:41:23;;;;;;;8.45;1.80;;;18.30;82.90;;;;;;5057889;28;20025;-63
2022/07/28 07:43:49;;;;;;;5.43;1.98;;;18.40;83.00;;;;;;5053860;28;20033;-63
2022/07/28 07:46:18;;;;;;;3.67;1.80;;;18.40;82.50;;;;;;5064226;28;20112;-64
2022/07/28 07:48:44;;;;;;;3.92;1.58;;;18.50;82.50;;;;;;5052009;28;20024;-65
2022/07/28 07:51:10;;;;;;;2.97;1.65;;;18.50;82.10;;;;;;5052113;28;20394;-63
2022/07/28 07:53:35;;;;;;;9.88;2.08;;;18.50;81.80;;;;;;5057994;28;20049;-63
2022/07/28 07:56:01;;;;;;;5.25;1.70;;;18.60;81.50;;;;;;5051476;28;20513;-64
2022/07/28 07:58:30;;;;;;;4.70;1.58;;;18.60;81.40;;;;;;5043664;28;20041;-63
2022/07/28 08:00:55;;;;;;;5.72;1.70;;;18.70;81.40;;;;;;5063824;28;20032;-63
2022/07/28 08:03:21;;;;;;;14.63;1.60;;;18.70;81.00;;;;;;5050185;28;20033;-62
2022/07/28 08:05:48;;;;;;;2.60;1.42;;;18.70;80.80;;;;;;5050734;28;20057;-63
2022/07/28 08:08:14;;;;;;;8.07;1.73;;;18.80;80.80;;;;;;5051764;28;20378;-63
2022/07/28 08:10:39;;;;;;;4.35;1.40;;;18.80;80.40;;;;;;5054682;28;20045;-63
2022/07/28 08:13:06;;;;;;;6.22;1.20;;;18.80;80.00;;;;;;5050464;28;20480;-63
2022/07/28 08:15:33;;;;;;;4.18;0.93;;;18.90;79.60;;;;;;5051038;28;20706;-63
2022/07/28 08:18:02;;;;;;;3.03;1.40;;;18.90;79.40;;;;;;5055601;28;20063;-62
2022/07/28 08:20:28;;;;;;;10.82;1.33;;;19.00;79.60;;;;;;5049085;28;20033;-62
2022/07/28 08:22:56;;;;;;;4.15;1.23;;;19.00;79.00;;;;;;5053477;28;20032;-62
2022/07/28 08:25:22;;;;;;;5.63;1.33;;;19.00;78.80;;;;;;5058542;28;20036;-62
2022/07/28 08:27:49;;;;;;;2.28;0.80;;;19.00;78.40;;;;;;5051491;28;20390;-62
2022/07/28 08:30:15;;;;;;;4.15;1.27;;;19.10;78.00;;;;;;5050425;28;20021;-62
2022/07/28 08:32:41;;;;;;;7.22;1.42;;;19.10;77.60;;;;;;5048929;28;20037;-62
2022/07/28 08:35:08;;;;;;;4.88;1.58;;;19.10;77.30;;;;;;5051802;28;20028;-62
2022/07/28 08:37:34;;;;;;;3.17;1.27;;;19.20;77.30;;;;;;5050433;28;20415;-62
2022/07/28 08:39:59;;;;;;;3.97;1.00;;;19.20;77.30;;;;;;5049579;28;20028;-62
2022/07/28 08:42:37;;;;;;;3.53;0.90;;;19.20;77.50;;;;;;5050139;28;20449;-62
2022/07/28 08:45:10;;;;;;;4.40;1.40;;;19.20;77.60;;;;;;5049383;28;20956;-63
2022/07/28 08:47:39;;;;;;;4.18;1.20;;;19.20;77.60;;;;;;5061537;28;20082;-62
2022/07/28 08:50:05;;;;;;;2.75;1.08;;;19.30;77.40;;;;;;5049300;28;20063;-62
2022/07/28 08:52:32;;;;;;;5.63;0.82;;;19.30;77.20;;;;;;5048198;28;20056;-63
2022/07/28 08:55:01;;;;;;;1.80;1.00;;;19.40;76.80;;;;;;5049425;28;20025;-62
2022/07/28 08:57:42;;;;;;;1.55;0.75;;;19.40;76.70;;;;;;5048126;28;20033;-62
2022/07/28 09:00:09;;;;;;;1.25;0.85;;;19.40;76.50;;;;;;5050751;28;20037;-62
2022/07/28 09:02:40;;;;;;;4.10;1.30;;;19.40;76.10;;;;;;5050509;28;20385;-62
2022/07/28 09:05:08;;;;;;;1.40;0.80;;;19.40;76.00;;;;;;5051390;28;20056;-62
2022/07/28 09:07:36;;;;;;;1.17;0.80;;;19.40;75.90;;;;;;5053509;28;20086;-62
2022/07/28 09:10:04;;;;;;;6.93;0.88;;;19.40;75.80;;;;;;5045786;28;20081;-62
2022/07/28 09:12:33;;;;;;;4.75;1.10;;;19.40;75.90;;;;;;5051408;28;20040;-62
2022/07/28 09:15:07;;;;;;;2.03;1.00;;;19.40;75.60;;;;;;5048843;28;20040;-62
2022/07/28 09:17:34;;;;;;;3.25;0.90;;;19.40;75.30;;;;;;5049614;28;20033;-65
2022/07/28 09:20:00;;;;;;;1.95;0.82;;;19.50;75.30;;;;;;5048097;28;20029;-62
2022/07/28 09:22:26;;;;;;;0.85;0.77;;;19.40;75.20;;;;;;5048200;28;20159;-63
2022/07/28 09:24:52;;;;;;;1.60;0.98;;;19.50;75.10;;;;;;5047515;28;20547;-62
2022/07/28 09:27:18;;;;;;;1.75;0.75;;;19.50;74.90;;;;;;5045481;28;20476;-62
2022/07/28 09:29:46;;;;;;;6.57;0.95;;;19.50;75.10;;;;;;5044624;28;20033;-62
2022/07/28 09:32:13;;;;;;;3.30;0.88;;;19.60;75.20;;;;;;5045746;28;20032;-62
2022/07/28 09:34:47;;;;;;;4.10;1.10;;;19.50;75.50;;;;;;5049947;28;20163;-62
2022/07/28 09:37:21;;;;;;;1.92;0.88;;;19.50;75.10;;;;;;5050441;28;20032;-62
2022/07/28 09:39:48;;;;;;;3.67;1.02;;;19.60;74.90;;;;;;5051350;28;20076;-62
2022/07/28 09:42:17;;;;;;;2.10;0.90;;;19.60;74.90;;;;;;5051919;28;20538;-63
2022/07/28 09:44:43;;;;;;;3.53;0.77;;;19.60;75.40;;;;;;5050428;28;20031;-63
2022/07/28 09:47:26;;;;;;;1.38;0.70;;;19.70;74.90;;;;;;5053915;28;20025;-63
2022/07/28 09:49:53;;;;;;;5.13;0.93;;;19.70;74.80;;;;;;5046498;28;20067;-62
2022/07/28 09:52:33;;;;;;;5.10;1.00;;;19.70;75.50;;;;;;5053538;28;20055;-63
2022/07/28 09:55:01;;;;;;;3.13;0.80;;;19.70;75.20;;;;;;5053046;28;20128;-62
2022/07/28 09:57:28;;;;;;;3.60;0.95;;;19.70;75.00;;;;;;5051809;28;20033;-62
2022/07/28 09:59:54;;;;;;;1.42;0.77;;;19.70;74.80;;;;;;5054637;28;20036;-63
2022/07/28 10:02:38;;;;;;;2.35;0.88;;;19.70;74.80;;;;;;5053630;28;20427;-62
2022/07/28 10:05:05;;;;;;;1.13;0.95;;;19.80;75.20;;;;;;5054360;28;20029;-62
2022/07/28 10:07:32;;;;;;;6.75;1.02;;;19.80;74.70;;;;;;5055893;28;20139;-62
2022/07/28 10:09:59;;;;;;;2.28;0.98;;;19.80;74.90;;;;;;5053169;28;20037;-62
2022/07/28 10:12:29;;;;;;;4.57;1.00;;;19.90;74.20;;;;;;5054370;28;20046;-62
2022/07/28 10:14:58;;;;;;;1.98;0.90;;;19.90;74.10;;;;;;5065046;28;20021;-63
2022/07/28 10:17:32;;;;;;;4.50;0.90;;;20.00;74.00;;;;;;5051685;28;20468;-63
2022/07/28 10:19:59;;;;;;;1.45;0.85;;;20.00;73.90;;;;;;5050917;28;20045;-64
2022/07/28 10:22:27;;;;;;;2.28;0.52;;;20.10;74.00;;;;;;5049782;28;20040;-64
2022/07/28 10:24:55;;;;;;;1.52;0.63;;;20.20;74.50;;;;;;5047641;28;20028;-65
2022/07/28 10:27:26;;;;;;;4.88;1.00;;;20.20;75.00;;;;;;5050582;28;20029;-63
2022/07/28 10:29:56;;;;;;;2.85;0.70;;;20.20;74.50;;;;;;5050502;28;20029;-63
2022/07/28 10:32:22;;;;;;;4.07;0.80;;;20.30;74.30;;;;;;5050762;28;20385;-65
2022/07/28 10:34:53;;;;;;;3.58;1.15;;;20.30;74.20;;;;;;5058076;28;20021;-63
2022/07/28 10:37:24;;;;;;;6.70;1.05;;;20.40;74.10;;;;;;5064735;28;20027;-63
2022/07/28 10:39:59;;;;;;;2.00;0.73;;;20.40;74.30;;;;;;5066208;28;20033;-64
2022/07/28 10:42:27;;;;;;;3.22;1.10;;;20.50;74.70;;;;;;5055529;28;20041;-63
2022/07/28 10:44:54;;;;;;;0.82;0.80;;;20.50;74.40;;;;;;5051653;28;20405;-63
2022/07/28 10:47:22;;;;;;;2.38;1.00;;;20.50;73.50;;;;;;5051670;28;20028;-63
2022/07/28 10:49:48;;;;;;;4.90;1.23;;;20.60;73.90;;;;;;5052475;28;20025;-63
2022/07/28 10:52:16;;;;;;;1.90;0.70;;;20.60;73.40;;;;;;5049290;28;20883;-63
2022/07/28 10:54:55;;;;;;;2.83;0.93;;;20.60;73.40;;;;;;5050087;28;20151;-63
2022/07/28 10:57:22;;;;;;;1.65;0.93;;;20.60;72.50;;;;;;5048663;28;20125;-65
2022/07/28 11:00:02;;;;;;;2.72;0.80;;;20.70;72.30;;;;;;5050222;28;20041;-64
2022/07/28 11:02:47;;;;;;;1.77;0.95;;;20.70;71.90;;;;;;5059520;28;20042;-63
2022/07/28 11:05:37;;;;;;;1.15;0.70;;;20.70;72.40;;;;;;5050412;28;20104;-63
2022/07/28 11:08:28;;;;;;;0.60;0.60;;;20.70;72.70;;;;;;5053537;28;20028;-63
2022/07/28 11:10:54;;;;;;;3.42;0.98;;;20.80;72.60;;;;;;5056021;28;20105;-63
2022/07/28 11:13:26;;;;;;;1.42;0.93;;;20.80;72.50;;;;;;5052370;28;20033;-63
2022/07/28 11:15:52;;;;;;;4.18;1.00;;;20.80;72.50;;;;;;5059438;28;20111;-63
2022/07/28 11:18:18;;;;;;;1.75;0.80;;;20.80;72.50;;;;;;5050817;28;20037;-63
2022/07/28 11:20:50;;;;;;;4.65;0.77;;;20.80;71.70;;;;;;5050027;28;20037;-64
2022/07/28 11:23:56;;;;;;;3.05;0.77;;;20.90;71.90;;;;;;5052288;28;20024;-64
2022/07/28 11:26:22;;;;;;;5.38;0.75;;;20.90;72.30;;;;;;5048229;28;20037;-63
2022/07/28 11:28:57;;;;;;;3.38;1.17;;;20.90;72.00;;;;;;5050365;28;20032;-63
2022/07/28 11:31:45;;;;;;;2.58;0.80;;;20.90;72.30;;;;;;5049227;28;20420;-63
2022/07/28 11:34:18;;;;;;;6.93;1.00;;;21.00;72.20;;;;;;5046871;28;20028;-62
2022/07/28 11:37:16;;;;;;;1.58;0.60;;;20.90;71.80;;;;;;5051047;28;20458;-63
2022/07/28 11:39:41;;;;;;;1.85;0.93;;;21.00;72.00;;;;;;5048326;28;20124;-63
2022/07/28 11:42:22;;;;;;;1.40;0.90;;;21.00;71.90;;;;;;5050537;28;20041;-63
2022/07/28 11:44:48;;;;;;;3.15;0.82;;;21.00;71.70;;;;;;5049996;28;20116;-63
2022/07/28 11:47:21;;;;;;;2.42;0.90;;;21.10;72.20;;;;;;5048496;28;20655;-63
2022/07/28 11:50:06;;;;;;;10.02;1.10;;;21.10;72.10;;;;;;5048599;28;20033;-63
2022/07/28 11:52:31;;;;;;;6.45;1.45;;;21.10;72.10;;;;;;5053351;28;20033;-63
2022/07/28 11:54:57;;;;;;;2.38;0.80;;;21.10;72.50;;;;;;5050222;28;20895;-62
2022/07/28 11:57:25;;;;;;;2.17;0.88;;;21.20;72.50;;;;;;5047713;28;20033;-63
2022/07/28 11:59:54;;;;;;;4.43;0.90;;;21.20;72.50;;;;;;5052019;28;20160;-63
2022/07/28 12:02:22;;;;;;;5.65;1.30;;;21.20;72.70;;;;;;5052026;28;20067;-62
2022/07/28 12:05:04;;;;;;;4.13;1.00;;;21.30;73.30;;;;;;5039194;28;20029;-62
2022/07/28 12:07:36;;;;;;;2.78;0.93;;;21.30;73.10;;;;;;5048844;28;20025;-63
2022/07/28 12:10:37;;;;;;;1.75;1.00;;;21.30;73.30;;;;;;5051277;28;20048;-63
2022/07/28 12:13:04;;;;;;;2.25;0.90;;;21.40;73.40;;;;;;5045496;28;20028;-63
2022/07/28 12:15:31;;;;;;;1.25;1.15;;;21.40;73.00;;;;;;5051036;28;20033;-63
2022/07/28 12:17:58;;;;;;;4.60;0.80;;;21.40;72.80;;;;;;5053071;28;20483;-63
2022/07/28 12:20:30;;;;;;;1.90;0.88;;;21.40;72.90;;;;;;5050538;28;20067;-63
2022/07/28 12:22:57;;;;;;;1.30;0.70;;;21.40;72.90;;;;;;5050729;28;20103;-63
2022/07/28 12:25:22;;;;;;;1.42;0.85;;;21.50;72.50;;;;;;5050113;28;20381;-63
2022/07/28 12:27:48;;;;;;;4.43;1.02;;;21.50;71.30;;;;;;5050791;28;20029;-63
2022/07/28 12:30:27;;;;;;;3.53;0.75;;;21.50;73.10;;;;;;5057120;28;20024;-64
2022/07/28 12:32:54;;;;;;;2.22;0.80;;;21.60;73.60;;;;;;5049677;28;20028;-67
2022/07/28 12:35:21;;;;;;;1.15;0.70;;;21.70;74.70;;;;;;5052340;28;20108;-63
2022/07/28 12:37:48;;;;;;;5.85;1.00;;;21.60;75.20;;;;;;5053050;28;20032;-62
2022/07/28 12:40:18;;;;;;;5.00;1.27;;;21.70;76.00;;;;;;5053636;28;20036;-62
2022/07/28 12:42:45;;;;;;;3.92;0.90;;;21.70;76.30;;;;;;5050982;28;20043;-62
2022/07/28 12:45:11;;;;;;;2.17;0.68;;;21.70;75.60;;;;;;5050457;28;20033;-62
2022/07/28 12:47:37;;;;;;;1.85;0.90;;;21.80;77.30;;;;;;5051406;28;20059;-62
2022/07/28 12:50:18;;;;;;;1.63;0.90;;;21.80;75.80;;;;;;5051776;28;20029;-62
2022/07/28 12:53:04;;;;;;;7.00;1.00;;;21.80;77.00;;;;;;5058362;28;20027;-63
2022/07/28 12:55:31;;;;;;;1.98;1.00;;;21.80;77.10;;;;;;5047829;28;20035;-62
2022/07/28 12:57:57;;;;;;;5.38;1.00;;;21.80;76.50;;;;;;5044525;28;20128;-62
2022/07/28 13:00:26;;;;;;;5.15;1.13;;;21.80;76.00;;;;;;5048768;28;20472;-62